sensor_id;sensor_type;location;lat;lon;timestamp;temperature;humidity
22469;DHT22;11401;50.792;4.352;2022-07-24T13:59:59;26.10;55.50
22469;DHT22;11401;50.792;4.352;2022-07-24T14:02:26;26.10;55.30
22469;DHT22;11401;50.792;4.352;2022-07-24T14:04:53;26.10;55.40
22469;DHT22;11401;50.792;4.352;2022-07-24T14:07:20;26.10;55.30
22469;DHT22;11401;50.792;4.352;2022-07-24T14:09:47;26.20;55.20
22469;DHT22;11401;50.792;4.352;2022-07-24T14:12:14;26.20;55.20
22469;DHT22;11401;50.792;4.352;2022-07-24T14:14:41;26.20;55.00
22469;DHT22;11401;50.792;4.352;2022-07-24T14:17:09;26.20;55.00
22469;DHT22;11401;50.792;4.352;2022-07-24T14:19:36;26.30;55.60
22469;DHT22;11401;50.792;4.352;2022-07-24T14:22:02;26.30;55.00
22469;DHT22;11401;50.792;4.352;2022-07-24T14:24:29;26.30;55.00
22469;DHT22;11401;50.792;4.352;2022-07-24T14:26:56;26.40;54.90
22469;DHT22;11401;50.792;4.352;2022-07-24T14:29:24;26.40;54.80
22469;DHT22;11401;50.792;4.352;2022-07-24T14:31:51;26.30;54.70
22469;DHT22;11401;50.792;4.352;2022-07-24T14:34:19;26.30;54.10
22469;DHT22;11401;50.792;4.352;2022-07-24T14:36:46;26.40;54.70
22469;DHT22;11401;50.792;4.352;2022-07-24T14:39:13;26.30;54.70
22469;DHT22;11401;50.792;4.352;2022-07-24T14:41:41;26.40;54.70
22469;DHT22;11401;50.792;4.352;2022-07-24T14:44:08;26.40;54.60
22469;DHT22;11401;50.792;4.352;2022-07-24T14:46:37;26.40;54.30
22469;DHT22;11401;50.792;4.352;2022-07-24T14:49:04;26.40;54.20
22469;DHT22;11401;50.792;4.352;2022-07-24T14:51:31;26.40;54.20
22469;DHT22;11401;50.792;4.352;2022-07-24T14:53:58;26.40;54.30
22469;DHT22;11401;50.792;4.352;2022-07-24T14:56:25;26.40;54.30
22469;DHT22;11401;50.792;4.352;2022-07-24T14:58:53;26.40;54.20
22469;DHT22;11401;50.792;4.352;2022-07-24T15:09:21;26.40;54.40
22469;DHT22;11401;50.792;4.352;2022-07-24T15:11:48;26.40;54.10
22469;DHT22;11401;50.792;4.352;2022-07-24T15:14:15;26.40;54.10
22469;DHT22;11401;50.792;4.352;2022-07-24T15:16:42;26.50;54.30
22469;DHT22;11401;50.792;4.352;2022-07-24T15:19:10;26.50;54.40
22469;DHT22;11401;50.792;4.352;2022-07-24T15:21:37;26.50;54.40
22469;DHT22;11401;50.792;4.352;2022-07-24T15:24:05;26.50;54.10
22469;DHT22;11401;50.792;4.352;2022-07-24T15:26:34;26.50;54.10
22469;DHT22;11401;50.792;4.352;2022-07-24T15:29:02;26.50;54.20
22469;DHT22;11401;50.792;4.352;2022-07-24T15:31:28;26.50;53.80
22469;DHT22;11401;50.792;4.352;2022-07-24T15:33:56;26.50;53.80
22469;DHT22;11401;50.792;4.352;2022-07-24T15:36:23;26.60;53.70
22469;DHT22;11401;50.792;4.352;2022-07-24T15:38:52;26.50;53.70
22469;DHT22;11401;50.792;4.352;2022-07-24T15:41:20;26.50;53.50
22469;DHT22;11401;50.792;4.352;2022-07-24T15:43:47;26.60;53.20
22469;DHT22;11401;50.792;4.352;2022-07-24T15:46:13;26.60;52.90
22469;DHT22;11401;50.792;4.352;2022-07-24T15:48:41;26.60;52.70
22469;DHT22;11401;50.792;4.352;2022-07-24T15:51:08;26.60;52.60
22469;DHT22;11401;50.792;4.352;2022-07-24T15:53:34;26.60;52.60
22469;DHT22;11401;50.792;4.352;2022-07-24T15:56:01;26.60;53.10
22469;DHT22;11401;50.792;4.352;2022-07-24T15:58:28;26.60;52.50
22469;DHT22;11401;50.792;4.352;2022-07-24T16:00:55;26.60;52.40
22469;DHT22;11401;50.792;4.352;2022-07-24T16:03:22;26.60;52.50
22469;DHT22;11401;50.792;4.352;2022-07-24T16:05:51;26.60;52.30
22469;DHT22;11401;50.792;4.352;2022-07-24T16:08:18;26.70;52.50
22469;DHT22;11401;50.792;4.352;2022-07-24T16:10:44;26.60;52.30
22469;DHT22;11401;50.792;4.352;2022-07-24T16:13:11;26.70;52.30
22469;DHT22;11401;50.792;4.352;2022-07-24T16:15:38;26.70;52.10
22469;DHT22;11401;50.792;4.352;2022-07-24T16:18:05;26.70;52.40
22469;DHT22;11401;50.792;4.352;2022-07-24T16:20:38;26.70;51.60
22469;DHT22;11401;50.792;4.352;2022-07-24T16:23:05;26.70;51.70
22469;DHT22;11401;50.792;4.352;2022-07-24T16:25:34;26.70;51.50
22469;DHT22;11401;50.792;4.352;2022-07-24T16:28:01;26.80;51.60
22469;DHT22;11401;50.792;4.352;2022-07-24T16:30:28;26.80;51.70
22469;DHT22;11401;50.792;4.352;2022-07-24T16:32:55;26.80;51.70
22469;DHT22;11401;50.792;4.352;2022-07-24T16:35:22;26.80;51.70
22469;DHT22;11401;50.792;4.352;2022-07-24T16:37:49;26.80;51.50
22469;DHT22;11401;50.792;4.352;2022-07-24T16:40:16;26.70;51.30
22469;DHT22;11401;50.792;4.352;2022-07-24T16:42:43;26.70;51.20
22469;DHT22;11401;50.792;4.352;2022-07-24T16:45:11;26.70;51.10
22469;DHT22;11401;50.792;4.352;2022-07-24T16:47:59;26.70;50.70
22469;DHT22;11401;50.792;4.352;2022-07-24T16:50:26;26.70;51.10
22469;DHT22;11401;50.792;4.352;2022-07-24T16:52:53;26.80;51.20
22469;DHT22;11401;50.792;4.352;2022-07-24T16:55:20;26.70;51.10
22469;DHT22;11401;50.792;4.352;2022-07-24T16:57:47;26.70;51.00
22469;DHT22;11401;50.792;4.352;2022-07-24T17:00:14;26.80;51.60
22469;DHT22;11401;50.792;4.352;2022-07-24T17:02:41;26.70;50.90
22469;DHT22;11401;50.792;4.352;2022-07-24T17:05:10;26.70;50.40
22469;DHT22;11401;50.792;4.352;2022-07-24T17:07:42;26.70;50.30
22469;DHT22;11401;50.792;4.352;2022-07-24T17:10:09;26.70;50.30
22469;DHT22;11401;50.792;4.352;2022-07-24T17:12:37;26.80;50.30
22469;DHT22;11401;50.792;4.352;2022-07-24T17:15:05;26.70;50.20
22469;DHT22;11401;50.792;4.352;2022-07-24T17:17:32;26.70;50.00
22469;DHT22;11401;50.792;4.352;2022-07-24T17:20:18;26.70;49.80
22469;DHT22;11401;50.792;4.352;2022-07-24T17:22:45;26.70;50.30
22469;DHT22;11401;50.792;4.352;2022-07-24T17:25:12;26.70;50.30
22469;DHT22;11401;50.792;4.352;2022-07-24T17:27:54;26.70;50.50
22469;DHT22;11401;50.792;4.352;2022-07-24T17:30:21;26.70;50.50
22469;DHT22;11401;50.792;4.352;2022-07-24T17:32:48;26.80;50.50
22469;DHT22;11401;50.792;4.352;2022-07-24T17:35:16;26.80;50.20
22469;DHT22;11401;50.792;4.352;2022-07-24T17:37:43;26.80;50.00
22469;DHT22;11401;50.792;4.352;2022-07-24T17:40:11;26.80;50.10
22469;DHT22;11401;50.792;4.352;2022-07-24T17:42:39;26.80;50.20
22469;DHT22;11401;50.792;4.352;2022-07-24T17:45:07;26.80;50.60
22469;DHT22;11401;50.792;4.352;2022-07-24T17:47:34;26.80;50.10
22469;DHT22;11401;50.792;4.352;2022-07-24T17:50:05;26.80;50.00
22469;DHT22;11401;50.792;4.352;2022-07-24T17:52:33;26.80;51.00
22469;DHT22;11401;50.792;4.352;2022-07-24T17:55:00;26.80;50.30
22469;DHT22;11401;50.792;4.352;2022-07-24T17:57:27;26.80;50.40
22469;DHT22;11401;50.792;4.352;2022-07-24T17:59:54;26.90;50.30
22469;DHT22;11401;50.792;4.352;2022-07-24T18:02:21;26.90;50.50
22469;DHT22;11401;50.792;4.352;2022-07-24T18:04:49;26.80;50.70
22469;DHT22;11401;50.792;4.352;2022-07-24T18:07:16;26.80;50.70
22469;DHT22;11401;50.792;4.352;2022-07-24T18:09:44;26.90;50.70
22469;DHT22;11401;50.792;4.352;2022-07-24T18:12:12;26.90;51.00
22469;DHT22;11401;50.792;4.352;2022-07-24T18:14:39;26.90;50.90
22469;DHT22;11401;50.792;4.352;2022-07-24T18:17:06;27.00;51.30
22469;DHT22;11401;50.792;4.352;2022-07-24T18:19:33;26.90;51.60
22469;DHT22;11401;50.792;4.352;2022-07-24T18:22:00;26.80;52.00
22469;DHT22;11401;50.792;4.352;2022-07-24T18:24:27;26.80;52.30
22469;DHT22;11401;50.792;4.352;2022-07-24T18:26:54;26.70;52.60
22469;DHT22;11401;50.792;4.352;2022-07-24T18:29:21;26.70;53.50
22469;DHT22;11401;50.792;4.352;2022-07-24T18:31:48;26.60;53.30
22469;DHT22;11401;50.792;4.352;2022-07-24T18:34:16;26.60;53.50
22469;DHT22;11401;50.792;4.352;2022-07-24T18:36:44;26.50;54.10
22469;DHT22;11401;50.792;4.352;2022-07-24T18:39:10;26.50;54.40
22469;DHT22;11401;50.792;4.352;2022-07-24T18:41:37;26.50;54.30
22469;DHT22;11401;50.792;4.352;2022-07-24T18:44:05;26.40;54.10
22469;DHT22;11401;50.792;4.352;2022-07-24T18:46:32;26.50;54.50
22469;DHT22;11401;50.792;4.352;2022-07-24T18:49:00;26.40;54.50
22469;DHT22;11401;50.792;4.352;2022-07-24T18:51:27;26.40;54.50
22469;DHT22;11401;50.792;4.352;2022-07-24T18:53:54;26.50;54.90
22469;DHT22;11401;50.792;4.352;2022-07-24T18:56:24;26.50;55.10
22469;DHT22;11401;50.792;4.352;2022-07-24T18:58:51;26.50;55.40
22469;DHT22;11401;50.792;4.352;2022-07-24T19:01:18;26.50;55.50
22469;DHT22;11401;50.792;4.352;2022-07-24T19:03:47;26.50;56.10
22469;DHT22;11401;50.792;4.352;2022-07-24T19:06:15;26.50;56.40
22469;DHT22;11401;50.792;4.352;2022-07-24T19:08:42;26.50;56.30
22469;DHT22;11401;50.792;4.352;2022-07-24T19:11:09;26.50;56.60
22469;DHT22;11401;50.792;4.352;2022-07-24T19:13:36;26.50;56.90
22469;DHT22;11401;50.792;4.352;2022-07-24T19:16:03;26.50;57.00
22469;DHT22;11401;50.792;4.352;2022-07-24T19:18:30;26.50;57.30
22469;DHT22;11401;50.792;4.352;2022-07-24T19:20:57;26.60;57.20
22469;DHT22;11401;50.792;4.352;2022-07-24T19:23:24;26.60;57.10
22469;DHT22;11401;50.792;4.352;2022-07-24T19:25:51;26.60;57.50
22469;DHT22;11401;50.792;4.352;2022-07-24T19:28:19;26.60;57.30
22469;DHT22;11401;50.792;4.352;2022-07-24T19:30:46;26.60;57.50
22469;DHT22;11401;50.792;4.352;2022-07-24T19:33:12;26.60;57.70
22469;DHT22;11401;50.792;4.352;2022-07-24T19:35:40;26.60;57.50
22469;DHT22;11401;50.792;4.352;2022-07-24T19:38:10;26.50;57.30
22469;DHT22;11401;50.792;4.352;2022-07-24T19:40:37;26.50;57.40
22469;DHT22;11401;50.792;4.352;2022-07-24T19:43:04;26.50;57.20
22469;DHT22;11401;50.792;4.352;2022-07-24T19:45:31;26.50;56.90
22469;DHT22;11401;50.792;4.352;2022-07-24T19:47:58;26.50;57.40
22469;DHT22;11401;50.792;4.352;2022-07-24T19:50:25;26.50;56.90
22469;DHT22;11401;50.792;4.352;2022-07-24T19:53:12;26.50;57.00
22469;DHT22;11401;50.792;4.352;2022-07-24T19:55:42;26.50;56.90
22469;DHT22;11401;50.792;4.352;2022-07-24T19:58:09;26.50;56.80
22469;DHT22;11401;50.792;4.352;2022-07-24T20:00:36;26.50;56.60
22469;DHT22;11401;50.792;4.352;2022-07-24T20:03:02;26.50;56.60
22469;DHT22;11401;50.792;4.352;2022-07-24T20:05:29;26.50;56.60
22469;DHT22;11401;50.792;4.352;2022-07-24T20:08:01;26.50;56.60
22469;DHT22;11401;50.792;4.352;2022-07-24T20:10:29;26.50;56.60
22469;DHT22;11401;50.792;4.352;2022-07-24T20:12:56;26.50;56.60
22469;DHT22;11401;50.792;4.352;2022-07-24T20:15:23;26.50;56.60
22469;DHT22;11401;50.792;4.352;2022-07-24T20:17:50;26.40;56.50
22469;DHT22;11401;50.792;4.352;2022-07-24T20:20:18;26.40;56.90
22469;DHT22;11401;50.792;4.352;2022-07-24T20:22:44;26.40;57.30
22469;DHT22;11401;50.792;4.352;2022-07-24T20:25:11;26.40;57.50
22469;DHT22;11401;50.792;4.352;2022-07-24T20:27:40;26.40;57.50
22469;DHT22;11401;50.792;4.352;2022-07-24T20:30:09;26.40;57.60
22469;DHT22;11401;50.792;4.352;2022-07-24T20:32:36;26.40;58.00
22469;DHT22;11401;50.792;4.352;2022-07-24T20:35:04;26.40;58.10
22469;DHT22;11401;50.792;4.352;2022-07-24T20:37:31;26.40;58.00
22469;DHT22;11401;50.792;4.352;2022-07-24T20:40:01;26.30;58.00
22469;DHT22;11401;50.792;4.352;2022-07-24T20:42:28;26.40;58.00
22469;DHT22;11401;50.792;4.352;2022-07-24T20:44:55;26.40;58.10
22469;DHT22;11401;50.792;4.352;2022-07-24T20:47:22;26.30;58.60
22469;DHT22;11401;50.792;4.352;2022-07-24T20:49:49;26.30;58.20
22469;DHT22;11401;50.792;4.352;2022-07-24T20:52:16;26.30;58.40
22469;DHT22;11401;50.792;4.352;2022-07-24T20:54:43;26.30;58.80
22469;DHT22;11401;50.792;4.352;2022-07-24T20:57:10;26.30;58.20
22469;DHT22;11401;50.792;4.352;2022-07-24T20:59:43;26.30;57.80
22469;DHT22;11401;50.792;4.352;2022-07-24T21:02:10;26.30;57.70
22469;DHT22;11401;50.792;4.352;2022-07-24T21:04:38;26.30;57.80
22469;DHT22;11401;50.792;4.352;2022-07-24T21:07:05;26.20;57.80
22469;DHT22;11401;50.792;4.352;2022-07-24T21:09:34;26.20;57.70
22469;DHT22;11401;50.792;4.352;2022-07-24T21:12:01;26.20;57.70
22469;DHT22;11401;50.792;4.352;2022-07-24T21:14:28;26.20;57.70
22469;DHT22;11401;50.792;4.352;2022-07-24T21:16:55;26.10;57.60
22469;DHT22;11401;50.792;4.352;2022-07-24T21:19:22;26.20;57.80
22469;DHT22;11401;50.792;4.352;2022-07-24T21:21:49;26.10;57.70
22469;DHT22;11401;50.792;4.352;2022-07-24T21:24:16;26.10;57.70
22469;DHT22;11401;50.792;4.352;2022-07-24T21:26:43;26.10;57.70
22469;DHT22;11401;50.792;4.352;2022-07-24T21:29:10;26.10;57.70
22469;DHT22;11401;50.792;4.352;2022-07-24T21:31:37;26.20;57.80
22469;DHT22;11401;50.792;4.352;2022-07-24T21:34:03;26.20;57.70
22469;DHT22;11401;50.792;4.352;2022-07-24T21:36:31;26.20;57.80
22469;DHT22;11401;50.792;4.352;2022-07-24T21:38:58;26.20;57.70
22469;DHT22;11401;50.792;4.352;2022-07-24T21:41:25;26.20;57.70
22469;DHT22;11401;50.792;4.352;2022-07-24T21:43:52;26.20;57.60
22469;DHT22;11401;50.792;4.352;2022-07-24T21:46:19;26.20;57.50
22469;DHT22;11401;50.792;4.352;2022-07-24T21:48:46;26.20;57.50
22469;DHT22;11401;50.792;4.352;2022-07-24T21:51:13;26.20;57.50
22469;DHT22;11401;50.792;4.352;2022-07-24T21:53:40;26.20;57.30
22469;DHT22;11401;50.792;4.352;2022-07-24T21:56:07;26.20;57.50
22469;DHT22;11401;50.792;4.352;2022-07-24T21:58:36;26.20;57.30
22469;DHT22;11401;50.792;4.352;2022-07-24T22:01:03;26.20;57.20
22469;DHT22;11401;50.792;4.352;2022-07-24T22:03:30;26.20;57.20
22469;DHT22;11401;50.792;4.352;2022-07-24T22:05:57;26.20;57.10
22469;DHT22;11401;50.792;4.352;2022-07-24T22:08:24;26.20;57.10
22469;DHT22;11401;50.792;4.352;2022-07-24T22:10:52;26.20;57.10
22469;DHT22;11401;50.792;4.352;2022-07-24T22:13:19;26.20;56.90
22469;DHT22;11401;50.792;4.352;2022-07-24T22:15:46;26.20;56.90
22469;DHT22;11401;50.792;4.352;2022-07-24T22:18:13;26.20;57.00
22469;DHT22;11401;50.792;4.352;2022-07-24T22:20:41;26.20;56.90
22469;DHT22;11401;50.792;4.352;2022-07-24T22:23:08;26.20;57.00
22469;DHT22;11401;50.792;4.352;2022-07-24T22:25:35;26.20;56.90
22469;DHT22;11401;50.792;4.352;2022-07-24T22:28:02;26.20;57.10
22469;DHT22;11401;50.792;4.352;2022-07-24T22:30:29;26.10;56.70
22469;DHT22;11401;50.792;4.352;2022-07-24T22:32:56;26.10;56.90
22469;DHT22;11401;50.792;4.352;2022-07-24T22:35:24;26.20;56.80
22469;DHT22;11401;50.792;4.352;2022-07-24T22:37:51;26.20;56.80
22469;DHT22;11401;50.792;4.352;2022-07-24T22:40:19;26.20;56.80
22469;DHT22;11401;50.792;4.352;2022-07-24T22:42:48;26.20;56.80
22469;DHT22;11401;50.792;4.352;2022-07-24T22:45:16;26.20;56.70
22469;DHT22;11401;50.792;4.352;2022-07-24T22:47:44;26.10;56.70
22469;DHT22;11401;50.792;4.352;2022-07-24T22:50:13;26.10;56.60
22469;DHT22;11401;50.792;4.352;2022-07-24T22:52:41;26.10;56.60
22469;DHT22;11401;50.792;4.352;2022-07-24T22:55:10;26.10;56.40
22469;DHT22;11401;50.792;4.352;2022-07-24T22:57:39;26.10;56.30
22469;DHT22;11401;50.792;4.352;2022-07-24T23:00:09;26.10;56.50
22469;DHT22;11401;50.792;4.352;2022-07-24T23:02:42;26.10;56.30
22469;DHT22;11401;50.792;4.352;2022-07-24T23:05:09;26.10;56.30
22469;DHT22;11401;50.792;4.352;2022-07-24T23:07:36;26.10;56.20
22469;DHT22;11401;50.792;4.352;2022-07-24T23:10:04;26.10;56.10
22469;DHT22;11401;50.792;4.352;2022-07-24T23:12:31;26.10;56.20
22469;DHT22;11401;50.792;4.352;2022-07-24T23:14:58;26.10;56.00
22469;DHT22;11401;50.792;4.352;2022-07-24T23:17:25;26.10;56.20
22469;DHT22;11401;50.792;4.352;2022-07-24T23:19:59;26.10;56.00
22469;DHT22;11401;50.792;4.352;2022-07-24T23:22:26;26.10;55.80
22469;DHT22;11401;50.792;4.352;2022-07-24T23:24:53;26.10;55.90
22469;DHT22;11401;50.792;4.352;2022-07-24T23:27:20;26.10;55.90
22469;DHT22;11401;50.792;4.352;2022-07-24T23:29:47;26.10;56.00
22469;DHT22;11401;50.792;4.352;2022-07-24T23:32:14;26.10;55.90
22469;DHT22;11401;50.792;4.352;2022-07-24T23:34:41;26.10;55.90
22469;DHT22;11401;50.792;4.352;2022-07-24T23:37:08;26.00;55.70
22469;DHT22;11401;50.792;4.352;2022-07-24T23:39:41;26.10;55.80
22469;DHT22;11401;50.792;4.352;2022-07-24T23:42:09;26.10;55.70
22469;DHT22;11401;50.792;4.352;2022-07-24T23:44:36;26.10;55.70
22469;DHT22;11401;50.792;4.352;2022-07-24T23:47:03;26.10;55.80
22469;DHT22;11401;50.792;4.352;2022-07-24T23:49:31;26.10;55.80
22469;DHT22;11401;50.792;4.352;2022-07-24T23:51:58;26.00;55.70
22469;DHT22;11401;50.792;4.352;2022-07-24T23:54:26;26.10;55.70
22469;DHT22;11401;50.792;4.352;2022-07-24T23:56:53;26.00;55.60
22469;DHT22;11401;50.792;4.352;2022-07-24T23:59:20;26.10;55.70
